sensor_id;sensor_type;location;lat;lon;timestamp;pressure;altitude;pressure_sealevel;temperature
15544;BMP180;7873;52.230;12.856;2023-03-14T00:00:33;98478.84;;;23.38
15544;BMP180;7873;52.230;12.856;2023-03-14T00:03:00;98477.44;;;23.35
15544;BMP180;7873;52.230;12.856;2023-03-14T00:05:27;98474.53;;;23.37
15544;BMP180;7873;52.230;12.856;2023-03-14T00:07:53;98470.22;;;23.36
15544;BMP180;7873;52.230;12.856;2023-03-14T00:10:20;98462.63;;;23.33
15544;BMP180;7873;52.230;12.856;2023-03-14T00:12:47;98449.19;;;23.33
15544;BMP180;7873;52.230;12.856;2023-03-14T00:15:14;98436.78;;;23.32
15544;BMP180;7873;52.230;12.856;2023-03-14T00:17:42;98425.47;;;23.30
15544;BMP180;7873;52.230;12.856;2023-03-14T00:20:10;98430.03;;;23.29
15544;BMP180;7873;52.230;12.856;2023-03-14T00:22:38;98421.41;;;23.27
15544;BMP180;7873;52.230;12.856;2023-03-14T00:25:07;98428.63;;;23.27
15544;BMP180;7873;52.230;12.856;2023-03-14T00:27:34;98414.16;;;23.28
15544;BMP180;7873;52.230;12.856;2023-03-14T00:30:02;98423.50;;;23.25
15544;BMP180;7873;52.230;12.856;2023-03-14T00:32:29;98430.50;;;23.26
15544;BMP180;7873;52.230;12.856;2023-03-14T00:34:57;98422.69;;;23.25
15544;BMP180;7873;52.230;12.856;2023-03-14T00:37:23;98421.88;;;23.24
15544;BMP180;7873;52.230;12.856;2023-03-14T00:39:51;98418.63;;;23.22
15544;BMP180;7873;52.230;12.856;2023-03-14T00:42:17;98414.88;;;23.23
15544;BMP180;7873;52.230;12.856;2023-03-14T00:44:44;98416.97;;;23.21
15544;BMP180;7873;52.230;12.856;2023-03-14T00:47:11;98404.56;;;23.20
15544;BMP180;7873;52.230;12.856;2023-03-14T00:49:37;98412.63;;;23.20
15544;BMP180;7873;52.230;12.856;2023-03-14T00:52:06;98397.56;;;23.19
15544;BMP180;7873;52.230;12.856;2023-03-14T00:54:32;98406.47;;;23.20
15544;BMP180;7873;52.230;12.856;2023-03-14T00:56:59;98397.56;;;23.19
15544;BMP180;7873;52.230;12.856;2023-03-14T00:59:25;98400.72;;;23.16
15544;BMP180;7873;52.230;12.856;2023-03-14T01:01:52;98407.97;;;23.16
15544;BMP180;7873;52.230;12.856;2023-03-14T01:04:19;98409.84;;;23.15
15544;BMP180;7873;52.230;12.856;2023-03-14T01:06:45;98416.03;;;23.16
15544;BMP180;7873;52.230;12.856;2023-03-14T01:09:13;98432.38;;;23.14
15544;BMP180;7873;52.230;12.856;2023-03-14T01:11:43;98458.41;;;23.14
15544;BMP180;7873;52.230;12.856;2023-03-14T01:14:12;98464.81;;;23.13
15544;BMP180;7873;52.230;12.856;2023-03-14T01:16:38;98461.09;;;23.14
15544;BMP180;7873;52.230;12.856;2023-03-14T01:19:05;98462.13;;;23.13
15544;BMP180;7873;52.230;12.856;2023-03-14T01:21:33;98475.78;;;23.11
15544;BMP180;7873;52.230;12.856;2023-03-14T01:24:02;98463.38;;;23.10
15544;BMP180;7873;52.230;12.856;2023-03-14T01:26:31;98459.06;;;23.09
15544;BMP180;7873;52.230;12.856;2023-03-14T01:28:59;98462.78;;;23.08
15544;BMP180;7873;52.230;12.856;2023-03-14T01:31:27;98465.47;;;23.08
15544;BMP180;7873;52.230;12.856;2023-03-14T01:33:53;98474.31;;;23.09
15544;BMP180;7873;52.230;12.856;2023-03-14T01:36:20;98475.38;;;23.08
15544;BMP180;7873;52.230;12.856;2023-03-14T01:38:47;98481.78;;;23.07
15544;BMP180;7873;52.230;12.856;2023-03-14T01:41:15;98476.44;;;23.07
15544;BMP180;7873;52.230;12.856;2023-03-14T01:43:44;98472.34;;;23.04
15544;BMP180;7873;52.230;12.856;2023-03-14T01:46:23;98475.84;;;23.05
15544;BMP180;7873;52.230;12.856;2023-03-14T01:48:55;98462.44;;;23.05
15544;BMP180;7873;52.230;12.856;2023-03-14T01:51:25;98456.47;;;23.03
15544;BMP180;7873;52.230;12.856;2023-03-14T01:54:01;98449.47;;;23.02
15544;BMP180;7873;52.230;12.856;2023-03-14T01:56:28;98444.34;;;23.00
15544;BMP180;7873;52.230;12.856;2023-03-14T01:58:59;98442.72;;;22.99
15544;BMP180;7873;52.230;12.856;2023-03-14T02:01:28;98450.19;;;22.97
15544;BMP180;7873;52.230;12.856;2023-03-14T02:03:57;98441.50;;;22.95
15544;BMP180;7873;52.230;12.856;2023-03-14T02:06:27;98435.34;;;22.95
15544;BMP180;7873;52.230;12.856;2023-03-14T02:08:55;98439.09;;;22.94
15544;BMP180;7873;52.230;12.856;2023-03-14T02:11:26;98444.19;;;22.95
15544;BMP180;7873;52.230;12.856;2023-03-14T02:13:57;98439.31;;;22.92
15544;BMP180;7873;52.230;12.856;2023-03-14T02:16:25;98433.13;;;22.92
15544;BMP180;7873;52.230;12.856;2023-03-14T02:18:51;98439.56;;;22.91
15544;BMP180;7873;52.230;12.856;2023-03-14T02:21:23;98434.97;;;22.91
15544;BMP180;7873;52.230;12.856;2023-03-14T02:23:57;98426.94;;;22.91
15544;BMP180;7873;52.230;12.856;2023-03-14T02:26:28;98415.41;;;22.91
15544;BMP180;7873;52.230;12.856;2023-03-14T02:28:57;98415.63;;;22.89
15544;BMP180;7873;52.230;12.856;2023-03-14T02:31:24;98412.94;;;22.89
15544;BMP180;7873;52.230;12.856;2023-03-14T02:33:52;98412.13;;;22.89
15544;BMP180;7873;52.230;12.856;2023-03-14T02:36:19;98403.25;;;22.88
15544;BMP180;7873;52.230;12.856;2023-03-14T02:38:51;98397.31;;;22.86
15544;BMP180;7873;52.230;12.856;2023-03-14T02:41:19;98388.66;;;22.84
15544;BMP180;7873;52.230;12.856;2023-03-14T02:43:45;98382.72;;;22.82
15544;BMP180;7873;52.230;12.856;2023-03-14T02:46:16;98366.63;;;22.82
15544;BMP180;7873;52.230;12.856;2023-03-14T02:48:47;98363.94;;;22.82
15544;BMP180;7873;52.230;12.856;2023-03-14T02:51:15;98366.38;;;22.84
15544;BMP180;7873;52.230;12.856;2023-03-14T02:53:42;98354.00;;;22.83
15544;BMP180;7873;52.230;12.856;2023-03-14T02:56:10;98350.16;;;22.79
15544;BMP180;7873;52.230;12.856;2023-03-14T02:58:37;98348.31;;;22.79
15544;BMP180;7873;52.230;12.856;2023-03-14T03:01:04;98343.16;;;22.78
15544;BMP180;7873;52.230;12.856;2023-03-14T03:03:32;98331.63;;;22.77
15544;BMP180;7873;52.230;12.856;2023-03-14T03:05:59;98336.16;;;22.77
15544;BMP180;7873;52.230;12.856;2023-03-14T03:08:26;98329.19;;;22.76
15544;BMP180;7873;52.230;12.856;2023-03-14T03:10:53;98328.38;;;22.75
15544;BMP180;7873;52.230;12.856;2023-03-14T03:13:20;98342.22;;;22.72
15544;BMP180;7873;52.230;12.856;2023-03-14T03:15:47;98348.41;;;22.73
15544;BMP180;7873;52.230;12.856;2023-03-14T03:18:13;98357.50;;;22.72
15544;BMP180;7873;52.230;12.856;2023-03-14T03:20:41;98372.78;;;22.71
15544;BMP180;7873;52.230;12.856;2023-03-14T03:23:08;98358.56;;;22.71
15544;BMP180;7873;52.230;12.856;2023-03-14T03:25:35;98360.66;;;22.69
15544;BMP180;7873;52.230;12.856;2023-03-14T03:28:02;98371.16;;;22.70
15544;BMP180;7873;52.230;12.856;2023-03-14T03:30:33;98358.78;;;22.69
15544;BMP180;7873;52.230;12.856;2023-03-14T03:33:00;98360.66;;;22.69
15544;BMP180;7873;52.230;12.856;2023-03-14T03:35:27;98365.19;;;22.68
15544;BMP180;7873;52.230;12.856;2023-03-14T03:37:55;98351.78;;;22.68
15544;BMP180;7873;52.230;12.856;2023-03-14T03:40:21;98346.88;;;22.65
15544;BMP180;7873;52.230;12.856;2023-03-14T03:42:48;98345.25;;;22.64
15544;BMP180;7873;52.230;12.856;2023-03-14T03:45:15;98354.34;;;22.63
15544;BMP180;7873;52.230;12.856;2023-03-14T03:47:41;98348.19;;;22.63
15544;BMP180;7873;52.230;12.856;2023-03-14T03:50:09;98349.22;;;22.62
15544;BMP180;7873;52.230;12.856;2023-03-14T03:52:36;98362.41;;;22.63
15544;BMP180;7873;52.230;12.856;2023-03-14T03:55:04;98359.13;;;22.61
15544;BMP180;7873;52.230;12.856;2023-03-14T03:57:31;98354.56;;;22.62
15544;BMP180;7873;52.230;12.856;2023-03-14T03:59:58;98366.34;;;22.61
15544;BMP180;7873;52.230;12.856;2023-03-14T04:02:24;98365.53;;;22.60
15544;BMP180;7873;52.230;12.856;2023-03-14T04:04:51;98359.13;;;22.61
15544;BMP180;7873;52.230;12.856;2023-03-14T04:07:18;98352.13;;;22.60
15544;BMP180;7873;52.230;12.856;2023-03-14T04:09:44;98343.25;;;22.60
15544;BMP180;7873;52.230;12.856;2023-03-14T04:12:13;98339.19;;;22.57
15544;BMP180;7873;52.230;12.856;2023-03-14T04:14:39;98352.34;;;22.59
15544;BMP180;7873;52.230;12.856;2023-03-14T04:17:06;98337.56;;;22.56
15544;BMP180;7873;52.230;12.856;2023-03-14T04:19:33;98340.56;;;22.60
15544;BMP180;7873;52.230;12.856;2023-03-14T04:22:00;98333.25;;;22.67
15544;BMP180;7873;52.230;12.856;2023-03-14T04:24:26;98328.00;;;22.72
15544;BMP180;7873;52.230;12.856;2023-03-14T04:26:53;98309.34;;;22.77
15544;BMP180;7873;52.230;12.856;2023-03-14T04:29:21;98298.88;;;22.75
15544;BMP180;7873;52.230;12.856;2023-03-14T04:31:48;98306.31;;;22.73
15544;BMP180;7873;52.230;12.856;2023-03-14T04:34:14;98302.34;;;22.76
15544;BMP180;7873;52.230;12.856;2023-03-14T04:36:41;98288.47;;;22.79
15544;BMP180;7873;52.230;12.856;2023-03-14T04:39:08;98302.59;;;22.86
15544;BMP180;7873;52.230;12.856;2023-03-14T04:41:34;98299.31;;;22.84
15544;BMP180;7873;52.230;12.856;2023-03-14T04:44:01;98303.88;;;22.83
15544;BMP180;7873;52.230;12.856;2023-03-14T04:46:29;98306.91;;;22.75
15544;BMP180;7873;52.230;12.856;2023-03-14T04:48:56;98295.94;;;22.77
15544;BMP180;7873;52.230;12.856;2023-03-14T04:51:22;98303.75;;;22.78
15544;BMP180;7873;52.230;12.856;2023-03-14T04:53:53;98308.19;;;22.84
15544;BMP180;7873;52.230;12.856;2023-03-14T04:56:20;98298.88;;;22.87
15544;BMP180;7873;52.230;12.856;2023-03-14T04:58:47;98284.16;;;22.89
15544;BMP180;7873;52.230;12.856;2023-03-14T05:01:13;98283.69;;;22.92
15544;BMP180;7873;52.230;12.856;2023-03-14T05:03:41;98288.00;;;22.93
15544;BMP180;7873;52.230;12.856;2023-03-14T05:06:08;98293.94;;;22.95
15544;BMP180;7873;52.230;12.856;2023-03-14T05:08:35;98288.34;;;22.97
15544;BMP180;7873;52.230;12.856;2023-03-14T05:11:02;98287.06;;;22.99
15544;BMP180;7873;52.230;12.856;2023-03-14T05:13:29;98289.50;;;23.01
15544;BMP180;7873;52.230;12.856;2023-03-14T05:16:03;98283.56;;;22.99
15544;BMP180;7873;52.230;12.856;2023-03-14T05:18:30;98288.72;;;23.00
15544;BMP180;7873;52.230;12.856;2023-03-14T05:20:58;98275.75;;;22.97
15544;BMP180;7873;52.230;12.856;2023-03-14T05:23:24;98270.41;;;22.97
15544;BMP180;7873;52.230;12.856;2023-03-14T05:25:51;98276.00;;;22.96
15544;BMP180;7873;52.230;12.856;2023-03-14T05:28:18;98270.50;;;22.91
15544;BMP180;7873;52.230;12.856;2023-03-14T05:30:44;98294.66;;;22.91
15544;BMP180;7873;52.230;12.856;2023-03-14T05:33:11;98287.19;;;22.93
15544;BMP180;7873;52.230;12.856;2023-03-14T05:35:38;98291.72;;;22.92
15544;BMP180;7873;52.230;12.856;2023-03-14T05:38:06;98280.53;;;22.95
15544;BMP180;7873;52.230;12.856;2023-03-14T05:40:32;98276.00;;;22.96
15544;BMP180;7873;52.230;12.856;2023-03-14T05:43:00;98291.50;;;22.94
15544;BMP180;7873;52.230;12.856;2023-03-14T05:45:26;98283.47;;;22.94
15544;BMP180;7873;52.230;12.856;2023-03-14T05:47:53;98285.09;;;22.95
15544;BMP180;7873;52.230;12.856;2023-03-14T05:50:20;98285.56;;;22.92
15544;BMP180;7873;52.230;12.856;2023-03-14T05:52:46;98283.09;;;22.90
15544;BMP180;7873;52.230;12.856;2023-03-14T05:55:15;98281.72;;;22.88
15544;BMP180;7873;52.230;12.856;2023-03-14T05:57:41;98282.78;;;22.87
15544;BMP180;7873;52.230;12.856;2023-03-14T06:00:09;98281.84;;;22.81
15544;BMP180;7873;52.230;12.856;2023-03-14T06:02:36;98278.00;;;22.77
15544;BMP180;7873;52.230;12.856;2023-03-14T06:05:03;98275.16;;;22.84
15544;BMP180;7873;52.230;12.856;2023-03-14T06:07:30;98272.47;;;22.84
15544;BMP180;7873;52.230;12.856;2023-03-14T06:09:57;98262.59;;;22.84
15544;BMP180;7873;52.230;12.856;2023-03-14T06:12:25;98268.75;;;22.85
15544;BMP180;7873;52.230;12.856;2023-03-14T06:14:51;98267.38;;;22.82
15544;BMP180;7873;52.230;12.856;2023-03-14T06:17:18;98271.09;;;22.81
15544;BMP180;7873;52.230;12.856;2023-03-14T06:19:45;98277.16;;;22.77
15544;BMP180;7873;52.230;12.856;2023-03-14T06:22:11;98271.56;;;22.78
15544;BMP180;7873;52.230;12.856;2023-03-14T06:24:38;98267.59;;;22.81
15544;BMP180;7873;52.230;12.856;2023-03-14T06:27:05;98276.47;;;22.81
15544;BMP180;7873;52.230;12.856;2023-03-14T06:29:33;98270.84;;;22.83
15544;BMP180;7873;52.230;12.856;2023-03-14T06:32:00;98281.56;;;22.83
15544;BMP180;7873;52.230;12.856;2023-03-14T06:34:26;98279.38;;;22.80
15544;BMP180;7873;52.230;12.856;2023-03-14T06:36:53;98280.41;;;22.79
15544;BMP180;7873;52.230;12.856;2023-03-14T06:39:20;98284.97;;;22.78
15544;BMP180;7873;52.230;12.856;2023-03-14T06:41:46;98290.56;;;22.77
15544;BMP180;7873;52.230;12.856;2023-03-14T06:44:13;98284.63;;;22.75
15544;BMP180;7873;52.230;12.856;2023-03-14T06:46:41;98291.25;;;22.72
15544;BMP180;7873;52.230;12.856;2023-03-14T06:49:07;98280.53;;;22.72
15544;BMP180;7873;52.230;12.856;2023-03-14T06:51:34;98290.47;;;22.72
15544;BMP180;7873;52.230;12.856;2023-03-14T06:54:01;98290.69;;;22.70
15544;BMP180;7873;52.230;12.856;2023-03-14T06:56:27;98296.88;;;22.71
15544;BMP180;7873;52.230;12.856;2023-03-14T06:58:54;98290.56;;;22.65
15544;BMP180;7873;52.230;12.856;2023-03-14T07:01:23;98300.50;;;22.65
15544;BMP180;7873;52.230;12.856;2023-03-14T07:03:51;98298.63;;;22.65
15544;BMP180;7873;52.230;12.856;2023-03-14T07:06:18;98295.34;;;22.63
15544;BMP180;7873;52.230;12.856;2023-03-14T07:08:44;98294.19;;;22.59
15544;BMP180;7873;52.230;12.856;2023-03-14T07:11:11;98293.13;;;22.60
15544;BMP180;7873;52.230;12.856;2023-03-14T07:13:38;98290.22;;;22.62
15544;BMP180;7873;52.230;12.856;2023-03-14T07:16:06;98299.56;;;22.59
15544;BMP180;7873;52.230;12.856;2023-03-14T07:18:33;98302.22;;;22.59
15544;BMP180;7873;52.230;12.856;2023-03-14T07:21:02;98304.34;;;22.57
15544;BMP180;7873;52.230;12.856;2023-03-14T07:23:28;98309.91;;;22.56
15544;BMP180;7873;52.230;12.856;2023-03-14T07:25:56;98313.41;;;22.56
15544;BMP180;7873;52.230;12.856;2023-03-14T07:28:22;98315.84;;;22.58
15544;BMP180;7873;52.230;12.856;2023-03-14T07:30:49;98312.59;;;22.56
15544;BMP180;7873;52.230;12.856;2023-03-14T07:33:16;98317.38;;;22.54
15544;BMP180;7873;52.230;12.856;2023-03-14T07:35:43;98321.47;;;22.56
15544;BMP180;7873;52.230;12.856;2023-03-14T07:38:10;98320.06;;;22.54
15544;BMP180;7873;52.230;12.856;2023-03-14T07:40:37;98323.56;;;22.54
15544;BMP180;7873;52.230;12.856;2023-03-14T07:43:04;98319.47;;;22.52
15544;BMP180;7873;52.230;12.856;2023-03-14T07:45:30;98317.63;;;22.52
15544;BMP180;7873;52.230;12.856;2023-03-14T07:47:57;98314.09;;;22.52
15544;BMP180;7873;52.230;12.856;2023-03-14T07:50:24;98313.53;;;22.50
15544;BMP180;7873;52.230;12.856;2023-03-14T07:52:50;98312.47;;;22.51
15544;BMP180;7873;52.230;12.856;2023-03-14T07:55:18;98306.53;;;22.49
15544;BMP180;7873;52.230;12.856;2023-03-14T07:57:45;98299.28;;;22.49
15544;BMP180;7873;52.230;12.856;2023-03-14T08:00:13;98300.13;;;22.50
15544;BMP180;7873;52.230;12.856;2023-03-14T08:02:40;98285.31;;;22.47
15544;BMP180;7873;52.230;12.856;2023-03-14T08:05:08;98291.72;;;22.46
15544;BMP180;7873;52.230;12.856;2023-03-14T08:07:35;98297.31;;;22.45
15544;BMP180;7873;52.230;12.856;2023-03-14T08:10:03;98296.84;;;22.48
15544;BMP180;7873;52.230;12.856;2023-03-14T08:12:31;98301.63;;;22.46
15544;BMP180;7873;52.230;12.856;2023-03-14T08:14:58;98300.22;;;22.43
15544;BMP180;7873;52.230;12.856;2023-03-14T08:17:25;98298.38;;;22.44
15544;BMP180;7873;52.230;12.856;2023-03-14T08:19:52;98295.69;;;22.44
15544;BMP180;7873;52.230;12.856;2023-03-14T08:22:19;98301.28;;;22.42
15544;BMP180;7873;52.230;12.856;2023-03-14T08:24:45;98313.63;;;22.43
15544;BMP180;7873;52.230;12.856;2023-03-14T08:27:12;98310.34;;;22.41
15544;BMP180;7873;52.230;12.856;2023-03-14T08:29:41;98303.16;;;22.42
15544;BMP180;7873;52.230;12.856;2023-03-14T08:32:09;98297.19;;;22.40
15544;BMP180;7873;52.230;12.856;2023-03-14T08:34:35;98306.25;;;22.39
15544;BMP180;7873;52.230;12.856;2023-03-14T08:37:02;98299.06;;;22.39
15544;BMP180;7873;52.230;12.856;2023-03-14T08:39:29;98302.56;;;22.40
15544;BMP180;7873;52.230;12.856;2023-03-14T08:41:56;98302.97;;;22.37
15544;BMP180;7873;52.230;12.856;2023-03-14T08:44:23;98300.09;;;22.38
15544;BMP180;7873;52.230;12.856;2023-03-14T08:46:51;98308.56;;;22.35
15544;BMP180;7873;52.230;12.856;2023-03-14T08:49:17;98292.97;;;22.32
15544;BMP180;7873;52.230;12.856;2023-03-14T08:51:44;98303.91;;;22.31
15544;BMP180;7873;52.230;12.856;2023-03-14T08:54:11;98302.84;;;22.32
15544;BMP180;7873;52.230;12.856;2023-03-14T08:56:38;98293.16;;;22.31
15544;BMP180;7873;52.230;12.856;2023-03-14T08:59:05;98293.41;;;22.29
15544;BMP180;7873;52.230;12.856;2023-03-14T09:01:33;98287.22;;;22.29
15544;BMP180;7873;52.230;12.856;2023-03-14T09:04:01;98299.59;;;22.30
15544;BMP180;7873;52.230;12.856;2023-03-14T09:06:28;98290.97;;;22.28
15544;BMP180;7873;52.230;12.856;2023-03-14T09:08:54;98300.84;;;22.27
15544;BMP180;7873;52.230;12.856;2023-03-14T09:11:21;98291.16;;;22.26
15544;BMP180;7873;52.230;12.856;2023-03-14T09:13:48;98283.97;;;22.27
15544;BMP180;7873;52.230;12.856;2023-03-14T09:16:15;98291.16;;;22.26
15544;BMP180;7873;52.230;12.856;2023-03-14T09:18:41;98287.69;;;22.26
15544;BMP180;7873;52.230;12.856;2023-03-14T09:21:09;98291.41;;;22.25
15544;BMP180;7873;52.230;12.856;2023-03-14T09:23:36;98288.16;;;22.23
15544;BMP180;7873;52.230;12.856;2023-03-14T09:26:03;98292.47;;;22.24
15544;BMP180;7873;52.230;12.856;2023-03-14T09:28:30;98287.91;;;22.24
15544;BMP180;7873;52.230;12.856;2023-03-14T09:30:56;98287.91;;;22.24
15544;BMP180;7873;52.230;12.856;2023-03-14T09:33:23;98292.47;;;22.24
15544;BMP180;7873;52.230;12.856;2023-03-14T09:35:50;98288.97;;;22.23
15544;BMP180;7873;52.230;12.856;2023-03-14T09:38:18;98297.00;;;22.23
15544;BMP180;7873;52.230;12.856;2023-03-14T09:40:46;98298.88;;;22.23
15544;BMP180;7873;52.230;12.856;2023-03-14T09:43:14;98298.88;;;22.23
15544;BMP180;7873;52.230;12.856;2023-03-14T09:45:42;98293.53;;;22.23
15544;BMP180;7873;52.230;12.856;2023-03-14T09:48:14;98293.53;;;22.23
15544;BMP180;7873;52.230;12.856;2023-03-14T09:50:43;98301.56;;;22.23
15544;BMP180;7873;52.230;12.856;2023-03-14T09:53:15;98300.50;;;22.24
15544;BMP180;7873;52.230;12.856;2023-03-14T09:55:45;98293.72;;;22.21
15544;BMP180;7873;52.230;12.856;2023-03-14T09:58:14;98302.59;;;22.22
15544;BMP180;7873;52.230;12.856;2023-03-14T10:00:42;98305.28;;;22.22
15544;BMP180;7873;52.230;12.856;2023-03-14T10:03:21;98307.97;;;22.22
15544;BMP180;7873;52.230;12.856;2023-03-14T10:05:48;98307.97;;;22.22
15544;BMP180;7873;52.230;12.856;2023-03-14T10:08:15;98316.81;;;22.22
15544;BMP180;7873;52.230;12.856;2023-03-14T10:10:41;98304.25;;;22.23
15544;BMP180;7873;52.230;12.856;2023-03-14T10:13:15;98309.00;;;22.21
15544;BMP180;7873;52.230;12.856;2023-03-14T10:15:52;98308.75;;;22.22
15544;BMP180;7873;52.230;12.856;2023-03-14T10:18:19;98307.97;;;22.22
15544;BMP180;7873;52.230;12.856;2023-03-14T10:20:51;98305.50;;;22.20
15544;BMP180;7873;52.230;12.856;2023-03-14T10:23:28;98303.88;;;22.19
15544;BMP180;7873;52.230;12.856;2023-03-14T10:26:04;98311.91;;;22.19
15544;BMP180;7873;52.230;12.856;2023-03-14T10:28:34;98310.88;;;22.20
15544;BMP180;7873;52.230;12.856;2023-03-14T10:31:04;98315.41;;;22.20
15544;BMP180;7873;52.230;12.856;2023-03-14T10:33:33;98310.06;;;22.20
15544;BMP180;7873;52.230;12.856;2023-03-14T10:36:01;98304.34;;;22.16
15544;BMP180;7873;52.230;12.856;2023-03-14T10:38:30;98312.16;;;22.18
15544;BMP180;7873;52.230;12.856;2023-03-14T10:40:57;98313.22;;;22.17
15544;BMP180;7873;52.230;12.856;2023-03-14T10:43:26;98310.53;;;22.17
15544;BMP180;7873;52.230;12.856;2023-03-14T10:45:56;98308.06;;;22.15
15544;BMP180;7873;52.230;12.856;2023-03-14T10:48:29;98312.84;;;22.13
15544;BMP180;7873;52.230;12.856;2023-03-14T10:50:59;98304.78;;;22.13
15544;BMP180;7873;52.230;12.856;2023-03-14T10:53:34;98315.25;;;22.15
15544;BMP180;7873;52.230;12.856;2023-03-14T10:56:05;98304.53;;;22.15
15544;BMP180;7873;52.230;12.856;2023-03-14T10:58:36;98316.09;;;22.15
15544;BMP180;7873;52.230;12.856;2023-03-14T11:01:18;98316.09;;;22.15
15544;BMP180;7873;52.230;12.856;2023-03-14T11:03:53;98314.69;;;22.13
15544;BMP180;7873;52.230;12.856;2023-03-14T11:06:25;98312.00;;;22.13
15544;BMP180;7873;52.230;12.856;2023-03-14T11:08:59;98307.69;;;22.12
15544;BMP180;7873;52.230;12.856;2023-03-14T11:11:31;98313.03;;;22.12
15544;BMP180;7873;52.230;12.856;2023-03-14T11:14:08;98310.38;;;22.12
15544;BMP180;7873;52.230;12.856;2023-03-14T11:16:49;98306.88;;;22.11
15544;BMP180;7873;52.230;12.856;2023-03-14T11:19:42;98309.56;;;22.11
15544;BMP180;7873;52.230;12.856;2023-03-14T11:22:17;98310.63;;;22.10
15544;BMP180;7873;52.230;12.856;2023-03-14T11:24:58;98306.06;;;22.11
15544;BMP180;7873;52.230;12.856;2023-03-14T11:27:36;98298.00;;;22.11
15544;BMP180;7873;52.230;12.856;2023-03-14T11:30:16;98299.53;;;22.07
15544;BMP180;7873;52.230;12.856;2023-03-14T11:32:46;98293.13;;;22.08
15544;BMP180;7873;52.230;12.856;2023-03-14T11:35:21;98304.28;;;22.05
15544;BMP180;7873;52.230;12.856;2023-03-14T11:37:52;98296.25;;;22.05
15544;BMP180;7873;52.230;12.856;2023-03-14T11:40:22;98304.88;;;22.07
15544;BMP180;7873;52.230;12.856;2023-03-14T11:42:54;98306.75;;;22.06
15544;BMP180;7873;52.230;12.856;2023-03-14T11:45:26;98291.50;;;22.07
15544;BMP180;7873;52.230;12.856;2023-03-14T11:48:12;98290.91;;;22.05
15544;BMP180;7873;52.230;12.856;2023-03-14T11:50:42;98290.91;;;22.05
15544;BMP180;7873;52.230;12.856;2023-03-14T11:53:12;98284.28;;;22.07
15544;BMP180;7873;52.230;12.856;2023-03-14T11:55:42;98288.81;;;22.07
15544;BMP180;7873;52.230;12.856;2023-03-14T11:58:13;98284.28;;;22.07
15544;BMP180;7873;52.230;12.856;2023-03-14T12:00:41;98292.53;;;22.06
15544;BMP180;7873;52.230;12.856;2023-03-14T12:03:16;98277.50;;;22.05
15544;BMP180;7873;52.230;12.856;2023-03-14T12:05:48;98276.91;;;22.03
15544;BMP180;7873;52.230;12.856;2023-03-14T12:08:44;98277.97;;;22.02
15544;BMP180;7873;52.230;12.856;2023-03-14T12:11:18;98269.94;;;22.02
15544;BMP180;7873;52.230;12.856;2023-03-14T12:13:48;98267.47;;;22.00
15544;BMP180;7873;52.230;12.856;2023-03-14T12:16:39;98263.72;;;22.01
15544;BMP180;7873;52.230;12.856;2023-03-14T12:19:26;98261.53;;;21.98
15544;BMP180;7873;52.230;12.856;2023-03-14T12:21:57;98266.66;;;22.00
15544;BMP180;7873;52.230;12.856;2023-03-14T12:24:26;98267.25;;;22.02
15544;BMP180;7873;52.230;12.856;2023-03-14T12:26:56;98268.28;;;22.01
15544;BMP180;7873;52.230;12.856;2023-03-14T12:29:23;98261.31;;;22.00
15544;BMP180;7873;52.230;12.856;2023-03-14T12:32:08;98267.72;;;21.99
15544;BMP180;7873;52.230;12.856;2023-03-14T12:34:39;98268.75;;;21.98
15544;BMP180;7873;52.230;12.856;2023-03-14T12:37:17;98268.75;;;21.98
15544;BMP180;7873;52.230;12.856;2023-03-14T12:39:56;98274.13;;;21.98
15544;BMP180;7873;52.230;12.856;2023-03-14T12:42:38;98277.38;;;22.00
15544;BMP180;7873;52.230;12.856;2023-03-14T12:45:24;98279.81;;;22.01
15544;BMP180;7873;52.230;12.856;2023-03-14T12:47:54;98272.25;;;21.98
15544;BMP180;7873;52.230;12.856;2023-03-14T12:50:28;98275.97;;;21.98
15544;BMP180;7873;52.230;12.856;2023-03-14T12:53:19;98283.19;;;21.97
15544;BMP180;7873;52.230;12.856;2023-03-14T12:55:54;98269.81;;;21.97
15544;BMP180;7873;52.230;12.856;2023-03-14T12:58:31;98269.34;;;22.00
15544;BMP180;7873;52.230;12.856;2023-03-14T13:01:01;98262.34;;;21.99
15544;BMP180;7873;52.230;12.856;2023-03-14T13:03:38;98252.44;;;21.99
15544;BMP180;7873;52.230;12.856;2023-03-14T13:06:09;98243.81;;;21.98
15544;BMP180;7873;52.230;12.856;2023-03-14T13:08:38;98241.38;;;21.96
15544;BMP180;7873;52.230;12.856;2023-03-14T13:11:08;98251.06;;;21.97
15544;BMP180;7873;52.230;12.856;2023-03-14T13:13:42;98243.81;;;21.98
15544;BMP180;7873;52.230;12.856;2023-03-14T13:16:14;98239.28;;;21.98
15544;BMP180;7873;52.230;12.856;2023-03-14T13:18:43;98239.28;;;21.98
15544;BMP180;7873;52.230;12.856;2023-03-14T13:21:15;98236.38;;;21.99
15544;BMP180;7873;52.230;12.856;2023-03-14T13:23:55;98234.25;;;22.01
15544;BMP180;7873;52.230;12.856;2023-03-14T13:26:23;98234.25;;;22.01
15544;BMP180;7873;52.230;12.856;2023-03-14T13:28:50;98231.84;;;22.00
15544;BMP180;7873;52.230;12.856;2023-03-14T13:31:22;98238.25;;;21.99
15544;BMP180;7873;52.230;12.856;2023-03-14T13:33:59;98249.75;;;21.99
15544;BMP180;7873;52.230;12.856;2023-03-14T13:36:28;98240.34;;;21.97
15544;BMP180;7873;52.230;12.856;2023-03-14T13:38:56;98222.38;;;21.98
15544;BMP180;7873;52.230;12.856;2023-03-14T13:41:24;98224.25;;;21.97
15544;BMP180;7873;52.230;12.856;2023-03-14T13:43:51;98224.47;;;21.96
15544;BMP180;7873;52.230;12.856;2023-03-14T13:46:20;98214.59;;;21.96
15544;BMP180;7873;52.230;12.856;2023-03-14T13:48:54;98211.91;;;21.96
15544;BMP180;7873;52.230;12.856;2023-03-14T13:51:22;98220.16;;;21.95
15544;BMP180;7873;52.230;12.856;2023-03-14T13:53:52;98220.16;;;21.95
15544;BMP180;7873;52.230;12.856;2023-03-14T13:56:20;98216.69;;;21.94
15544;BMP180;7873;52.230;12.856;2023-03-14T13:58:47;98217.84;;;21.98
15544;BMP180;7873;52.230;12.856;2023-03-14T14:01:16;98219.59;;;22.04
15544;BMP180;7873;52.230;12.856;2023-03-14T14:03:44;98217.75;;;22.04
15544;BMP180;7873;52.230;12.856;2023-03-14T14:06:27;98214.16;;;22.10
15544;BMP180;7873;52.230;12.856;2023-03-14T14:08:58;98213.44;;;22.15
15544;BMP180;7873;52.230;12.856;2023-03-14T14:11:35;98218.13;;;22.19
15544;BMP180;7873;52.230;12.856;2023-03-14T14:14:09;98206.72;;;22.24
15544;BMP180;7873;52.230;12.856;2023-03-14T14:16:37;98210.44;;;22.23
15544;BMP180;7873;52.230;12.856;2023-03-14T14:19:04;98207.75;;;22.23